Balzers Heliport

LSXB · Balzers, 列支敦士登

METAR的历史 LSXB · Balzers Heliport

下面你可以看到过去几天的METARs。 选择年份以浏览从2007年开始的旧METAR。

2024年7月15日

时间 代码 天气 温度 能见度 天花板 METAR/SPECI
18:50
V
28 °C 10 km+ - 290° 290° 3 kt METAR LSZR 151650Z 29003KT 260V350 CAVOK 28/19 Q1010 RMK N
18:20
V
29 °C 10 km+ - Var Var 2 kt METAR LSZR 151620Z VRB02KT CAVOK 29/17 Q1010 RMK M
17:50
V
29 °C 10 km+ - Var Var 1 kt METAR LSZR 151550Z VRB01KT CAVOK 29/17 Q1010 RMK M
17:20
V
28 °C 10 km+ - Var Var 3 kt METAR LSZR 151520Z VRB03KT CAVOK 28/17 Q1011 RMK L
16:50
V
27 °C 10 km+ - 260° 260° 5 kt METAR LSZR 151450Z 26005KT 230V290 CAVOK 27/19 Q1012 RMK K
16:20
V
27 °C 10 km+ - 260° 260° 5 kt METAR LSZR 151420Z 26005KT 230V290 CAVOK 27/19 Q1012 RMK K
15:50
V
26 °C 10 km+ - 260° 260° 4 kt METAR LSZR 151350Z 26004KT 210V300 9999 FEW060 26/19 Q1012 RMK J
15:20
V
26 °C 10 km+ - 260° 260° 4 kt METAR LSZR 151320Z 26004KT 210V300 9999 FEW060 26/19 Q1012 RMK J
14:50
V
24 °C 10 km+ - 280° 280° 6 kt METAR LSZR 151250Z 28006KT 9999 FEW060 24/20 Q1012 RMK I
14:20
V
24 °C 10 km+ - 280° 280° 6 kt METAR LSZR 151220Z 28006KT 9999 FEW060 24/20 Q1012 RMK I
13:50
V
23 °C 10 km+ - 280° 280° 5 kt METAR LSZR 151150Z 28005KT 9999 FEW060 23/19 Q1013 RMK H
13:20
V
23 °C 10 km+ - 280° 280° 5 kt METAR LSZR 151120Z 28005KT 9999 FEW060 23/19 Q1013 RMK H
12:50
V
23 °C 10 km+ - 280° 280° 4 kt METAR LSZR 151050Z 28004KT 240V330 CAVOK 23/18 Q1013 RMK G
12:20
V
23 °C 10 km+ - 280° 280° 4 kt METAR LSZR 151020Z 28004KT 240V330 CAVOK 23/19 Q1013 RMK G
11:50
V
22 °C 10 km+ - 320° 320° 6 kt METAR LSZR 150950Z 32006KT CAVOK 22/17 Q1014 RMK F
11:20
V
22 °C 10 km+ - 320° 320° 6 kt METAR LSZR 150920Z 32006KT CAVOK 22/17 Q1014 RMK F
10:50
V
22 °C 10 km+ - 310° 310° 4 kt METAR LSZR 150850Z 31004KT 270V350 CAVOK 22/17 Q1014 RMK E
10:20
V
21 °C 10 km+ - 310° 310° 4 kt METAR LSZR 150820Z 31004KT 270V350 CAVOK 21/18 Q1014 RMK E
09:50
V
20 °C 10 km+ - 270° 270° 4 kt METAR LSZR 150750Z 27004KT 230V300 CAVOK 20/18 Q1015 RMK D
09:20
V
20 °C 10 km+ - 270° 270° 4 kt METAR LSZR 150720Z 27004KT 230V300 CAVOK 20/18 Q1015 RMK D
08:50
V
20 °C 10 km+ - 280° 280° 3 kt METAR LSZR 150650Z 28003KT CAVOK 20/18 Q1015 RMK C
08:20
V
20 °C 10 km+ - 280° 280° 3 kt METAR LSZR 150620Z 28003KT CAVOK 20/18 Q1015 RMK C
07:50
V
20 °C 10 km+ - Var Var 2 kt METAR LSZR 150550Z VRB02KT CAVOK 20/17 Q1015 RMK B
07:20
V
18 °C 10 km+ - Var Var 1 kt METAR LSZR 150520Z VRB01KT CAVOK 18/17 Q1015 RMK B
06:50
V
17 °C 10 km+ - Var Var 1 kt METAR LSZR 150450Z VRB01KT CAVOK 17/16 Q1015 RMK A
06:20
V
17 °C 10 km+ - Var Var 1 kt METAR LSZR 150420Z VRB01KT CAVOK 17/16 Q1015 RMK A
05:50
V
16 °C 10 km+ - Var Var 1 kt METAR LSZR 150350Z AUTO VRB01KT 9999 FEW100 16/16 Q1015
05:20
V
16 °C 10 km+ - Var Var 2 kt METAR LSZR 150320Z AUTO VRB02KT 9999 FEW100 16/15 Q1015
04:50
V
17 °C 10 km+ - 250° 250° 3 kt METAR LSZR 150250Z AUTO 25003KT CAVOK 17/15 Q1015
04:20
V
17 °C 10 km+ - 240° 240° 2 kt METAR LSZR 150220Z AUTO 24002KT CAVOK 17/16 Q1015
03:50
V
17 °C 10 km+ - Var Var 1 kt METAR LSZR 150150Z AUTO VRB01KT 9999 NCD 17/15 Q1015
03:20
V
17 °C 10 km+ - 110° 110° 1 kt METAR LSZR 150120Z AUTO 11001KT 9999 FEW085 17/16 Q1015
02:50
V
17 °C 10 km+ - 100° 100° 3 kt METAR LSZR 150050Z AUTO 10003KT 9999 SCT090 17/15 Q1015
02:20
V
17 °C 8 km 9.000 ft Var Var 1 kt METAR LSZR 150020Z AUTO VRB01KT 8000 BKN090 17/16 Q1015
01:50
V
17 °C 10 km+ - Var Var 1 kt METAR LSZR 142350Z AUTO VRB01KT 9999 SCT090 17/16 Q1015
01:20
V
17 °C 10 km+ - Var Var 2 kt METAR LSZR 142320Z AUTO VRB02KT 9999 NCD 17/15 Q1015
00:50
V
19 °C 10 km+ - Var Var 2 kt METAR LSZR 142250Z AUTO VRB02KT CAVOK 19/14 Q1015
00:20
V
19 °C 10 km+ - Var Var 3 kt METAR LSZR 142220Z AUTO VRB03KT 9999 NCD 19/15 Q1015

2024年7月14日

时间 代码 天气 温度 能见度 天花板 METAR/SPECI
23:50
V
20 °C 10 km+ - Var Var 3 kt METAR LSZR 142150Z AUTO VRB03KT 9999 FEW100 20/15 Q1014
23:20
V
21 °C 10 km+ - 100° 100° 5 kt METAR LSZR 142120Z AUTO 10005KT 050V140 9999 NCD 21/14 Q1014
22:50
V
21 °C 10 km+ - 090° 090° 5 kt METAR LSZR 142050Z AUTO 09005KT CAVOK 21/15 Q1014
22:20
V
20 °C 10 km+ - 090° 090° 3 kt METAR LSZR 142020Z AUTO 09003KT CAVOK 20/17 Q1015
21:50
I
20 °C 2,4 km - Var Var 2 kt METAR LSZR 141950Z AUTO VRB02KT 2400 BR NCD 20/17 Q1015
21:20
M
22 °C 7 km - Var Var 1 kt METAR LSZR 141920Z AUTO VRB01KT 7000 NCD 22/15 Q1015
20:50
V
23 °C 10 km+ - 150° 150° 3 kt METAR LSZR 141850Z AUTO 15003KT 110V180 CAVOK 23/13 Q1015
20:20
V
22 °C 10 km+ - 180° 180° 3 kt METAR LSZR 141820Z AUTO 18003KT CAVOK 22/16 Q1015
19:50
V
24 °C 10 km+ - Var Var 2 kt METAR LSZR 141750Z VRB02KT CAVOK 24/13 Q1015 RMK K
19:20
V
24 °C 10 km+ - Var Var 2 kt METAR LSZR 141720Z VRB02KT CAVOK 24/13 Q1015 RMK J
18:50
V
24 °C 10 km+ - Var Var 2 kt METAR LSZR 141650Z VRB02KT CAVOK 24/13 Q1015 RMK J
18:20
V
24 °C 10 km+ - Var Var 1 kt METAR LSZR 141620Z VRB01KT CAVOK 24/13 Q1015 RMK I
17:50
V
24 °C 10 km+ - Var Var 1 kt METAR LSZR 141550Z VRB01KT CAVOK 24/13 Q1015 RMK I
17:20
V
23 °C 10 km+ - Var Var 2 kt METAR LSZR 141520Z VRB02KT CAVOK 23/12 Q1015 RMK H
16:50
V
23 °C 10 km+ - Var Var 2 kt METAR LSZR 141450Z VRB02KT CAVOK 23/12 Q1015 RMK H
16:20
V
24 °C 10 km+ - Var Var 2 kt METAR LSZR 141420Z VRB02KT CAVOK 24/12 Q1015 RMK G
15:50
V
24 °C 10 km+ - Var Var 2 kt METAR LSZR 141350Z VRB02KT CAVOK 24/12 Q1015 RMK G
15:20
V
24 °C 10 km+ - 360° 360° 4 kt METAR LSZR 141320Z 36004KT 320V050 CAVOK 24/12 Q1015 RMK F
14:50
V
24 °C 10 km+ - 030° 030° 4 kt METAR LSZR 141250Z 03004KT 350V060 CAVOK 24/12 Q1015 RMK F
14:20
V
23 °C 10 km+ - Var Var 3 kt METAR LSZR 141220Z VRB03KT CAVOK 23/15 Q1015 RMK E
13:50
V
22 °C 10 km+ - 040° 040° 4 kt METAR LSZR 141150Z 04004KT 360V090 CAVOK 22/12 Q1015 RMK E
13:20
V
22 °C 10 km+ - 060° 060° 5 kt METAR LSZR 141120Z 06005KT 9999 FEW025 22/13 Q1015 RMK D
12:50
V
21 °C 10 km+ - Var Var 2 kt METAR LSZR 141050Z VRB02KT 9999 FEW025 21/13 Q1015 RMK D
12:20
V
21 °C 10 km+ - 300° 300° 5 kt METAR LSZR 141020Z 30005KT 250V340 9999 FEW025 21/14 Q1016 RMK C
11:50
V
20 °C 10 km+ - 300° 300° 5 kt METAR LSZR 140950Z 30005KT 250V340 9999 FEW025 20/17 Q1016 RMK C
11:20
V
19 °C 10 km+ - 030° 030° 3 kt METAR LSZR 140920Z 03003KT 330V100 CAVOK 19/16 Q1016 RMK B
10:50
V
19 °C 10 km+ - 030° 030° 3 kt METAR LSZR 140850Z 03003KT 330V100 CAVOK 19/15 Q1016 RMK B
10:20
V
19 °C 10 km+ - 010° 010° 3 kt METAR LSZR 140820Z 01003KT 300V080 CAVOK 19/15 Q1015 RMK A
09:50
V
18 °C 10 km+ - Var Var 2 kt METAR LSZR 140750Z VRB02KT CAVOK 18/14 Q1015 RMK A
09:20
V
18 °C 10 km+ - Var Var 3 kt METAR LSZR 140720Z AUTO VRB03KT CAVOK 18/14 Q1015
08:50
V
17 °C 10 km+ - 070° 070° 3 kt METAR LSZR 140650Z AUTO 07003KT CAVOK 17/14 Q1016
08:20
V
17 °C 10 km+ - 100° 100° 4 kt METAR LSZR 140620Z AUTO 10004KT 060V120 9999 NCD 17/15 Q1016
07:50
V
16 °C 10 km+ - 100° 100° 4 kt METAR LSZR 140550Z AUTO 10004KT 9999 FEW085 16/14 Q1016
07:20
V
14 °C 10 km+ 8.500 ft 090° 090° 3 kt METAR LSZR 140520Z AUTO 09003KT 9999 FEW015 BKN085 14/14 Q1016
06:50
V
14 °C 10 km+ - 110° 110° 2 kt METAR LSZR 140450Z AUTO 11002KT 9999 FEW013 SCT016 14/13 Q1016
06:20
M
13 °C 10 km+ 1.500 ft 100° 100° 4 kt METAR LSZR 140420Z AUTO 10004KT 9999 BKN015 13/13 Q1015
05:50
V
13 °C 10 km+ - 100° 100° 3 kt METAR LSZR 140350Z AUTO 10003KT 9999 FEW013 13/13 Q1015
05:20
V
13 °C 10 km+ - 130° 130° 2 kt METAR LSZR 140320Z AUTO 13002KT CAVOK 13/12 Q1015
04:50
V
13 °C 10 km+ - 130° 130° 2 kt METAR LSZR 140250Z AUTO 13002KT 9999 NCD 13/13 Q1014
04:20
V
13 °C 10 km+ - Var Var 1 kt METAR LSZR 140220Z AUTO VRB01KT 9999 FEW080 13/12 Q1014
03:50
V
13 °C 10 km+ - 120° 120° 3 kt METAR LSZR 140150Z AUTO 12003KT 9999 NCD 13/13 Q1014
03:20
V
14 °C 10 km+ - Var Var 1 kt METAR LSZR 140120Z AUTO VRB01KT 9999 FEW075 SCT085 14/13 Q1014
02:50
V
14 °C 10 km+ - Var Var 2 kt METAR LSZR 140050Z AUTO VRB02KT 9999 SCT085 14/13 Q1015
02:20
V
14 °C 10 km+ - 110° 110° 5 kt METAR LSZR 140020Z AUTO 11005KT 9999 FEW075 SCT100 14/13 Q1015
01:50
V
15 °C 10 km+ 10.000 ft 120° 120° 4 kt METAR LSZR 132350Z AUTO 12004KT 090V170 9999 FEW075 BKN100 15/13 Q1015
01:20
V
14 °C 10 km+ - 110° 110° 4 kt METAR LSZR 132320Z AUTO 11004KT 9999 SCT075 14/13 Q1015
00:50
V
15 °C 10 km+ 7.500 ft 070° 070° 3 kt METAR LSZR 132250Z AUTO 07003KT 9999 BKN075 15/14 Q1015
00:20
V
16 °C 10 km+ 7.500 ft 100° 100° 4 kt METAR LSZR 132220Z AUTO 10004KT 080V140 9999 BKN075 16/14 Q1015

2024年7月13日

时间 代码 天气 温度 能见度 天花板 METAR/SPECI
23:50
V
16 °C 10 km+ 7.500 ft Var Var 1 kt METAR LSZR 132150Z AUTO VRB01KT 9999 OVC075 16/13 Q1015
23:20
V
16 °C 10 km+ 7.500 ft 170° 170° 3 kt METAR LSZR 132120Z AUTO 17003KT 120V220 9999 OVC075 16/13 Q1015
22:50
V
17 °C 10 km+ 7.500 ft Var Var 2 kt METAR LSZR 132050Z AUTO VRB02KT 9999 BKN075 17/13 Q1015
22:20
V
18 °C 10 km+ 7.500 ft Var Var 2 kt METAR LSZR 132020Z AUTO VRB02KT 9999 OVC075 18/14 Q1015
21:50
M
18 °C 7 km 7.500 ft Var Var 2 kt METAR LSZR 131950Z AUTO VRB02KT 7000 OVC075 18/14 Q1015
21:20
V
18 °C 10 km+ 7.000 ft Var Var 1 kt METAR LSZR 131920Z AUTO VRB01KT 9999 OVC070 18/13 Q1014
20:50
V
18 °C 10 km+ 7.000 ft 110° 110° 3 kt METAR LSZR 131850Z AUTO 11003KT 9999 OVC070 18/14 Q1015
20:20
V
19 °C 10 km+ 6.500 ft 110° 110° 4 kt METAR LSZR 131820Z AUTO 11004KT 070V150 9999 OVC065 19/14 Q1015
19:50
V
19 °C 10 km+ 6.500 ft Var Var 2 kt METAR LSZR 131750Z VRB02KT 9999 SCT055 BKN065 19/14 Q1015 RMK O
19:20
V
19 °C 10 km+ 6.500 ft Var Var 1 kt METAR LSZR 131720Z VRB01KT 9999 BKN065 19/14 Q1015 RMK N
18:50
V
19 °C 10 km+ 6.500 ft Var Var 1 kt METAR LSZR 131650Z VRB01KT 9999 BKN065 19/14 Q1015 RMK N
18:20
V
19 °C 10 km+ 5.500 ft 060° 060° 3 kt METAR LSZR 131620Z 06003KT 9999 BKN055 19/13 Q1015 RMK M
17:50
V
19 °C 10 km+ 5.500 ft 060° 060° 3 kt METAR LSZR 131550Z 06003KT 9999 BKN055 19/13 Q1015 RMK M
17:20
V
19 °C 10 km+ 5.000 ft Var Var 2 kt METAR LSZR 131520Z VRB02KT 9999 FEW020 BKN050 19/14 Q1015 RMK L
16:50
V
19 °C 10 km+ 5.000 ft Var Var 2 kt METAR LSZR 131450Z VRB02KT 9999 FEW020 BKN050 19/14 Q1015 RMK L
16:20
V
18 °C 10 km+ 5.000 ft 060° 060° 3 kt METAR LSZR 131420Z 06003KT 010V090 9999 FEW020 BKN050 18/13 Q1015 RMK K
15:50
V
19 °C 10 km+ 5.000 ft 060° 060° 3 kt METAR LSZR 131350Z 06003KT 010V090 9999 FEW020 BKN050 19/13 Q1015 RMK K
15:20
V
18 °C 10 km+ 5.000 ft Var Var 3 kt METAR LSZR 131320Z VRB03KT 9999 FEW020 OVC050 18/14 Q1015 RMK J
14:50
V
18 °C 10 km+ 5.000 ft Var Var 3 kt METAR LSZR 131250Z VRB03KT 9999 FEW020 OVC050 18/14 Q1015 RMK J
14:20
V
18 °C 10 km+ 5.000 ft 130° 130° 4 kt METAR LSZR 131220Z 13004KT 060V180 9999 FEW016 OVC050 18/13 Q1015 RMK I
13:50
V
17 °C 10 km+ 5.000 ft 130° 130° 4 kt METAR LSZR 131150Z 13004KT 060V180 9999 FEW016 OVC050 17/14 Q1015 RMK I
13:20
M
17 °C 10 km+ 1.600 ft 100° 100° 5 kt METAR LSZR 131120Z 10005KT 9999 SCT012 BKN016 OVC045 17/14 Q1015 RMK H
12:50
M
16 °C 10 km+ 1.600 ft 100° 100° 5 kt METAR LSZR 131050Z 10005KT 9999 SCT012 BKN016 OVC045 16/14 Q1016 RMK H
12:20
M
16 °C 10 km+ 1.600 ft 030° 030° 6 kt METAR LSZR 131020Z 03006KT 9999 VCSH SCT012 BKN016 OVC045 16/14 Q1016 RMK G
11:50
M
16 °C 10 km+ 1.600 ft 030° 030° 6 kt METAR LSZR 130950Z 03006KT 9999 VCSH SCT012 BKN016 OVC045 16/14 Q1016 RMK G
11:20
M
16 °C 10 km+ 1.600 ft 360° 360° 4 kt METAR LSZR 130920Z 36004KT 290V060 9999 VCSH SCT012 BKN016 OVC045 16/14 Q1015 RMK F
10:50
V
16 °C 10 km+ 4.500 ft 330° 330° 5 kt METAR LSZR 130850Z 33005KT 300V360 9999 VCSH SCT014 SCT022 OVC045 16/14 Q1016 RMK E
10:20
M
16 °C 10 km+ 3.000 ft 310° 310° 6 kt METAR LSZR 130820Z 31006KT 9999 FEW013 SCT024 BKN030 16/14 Q1015 RMK D
09:50
V
16 °C 10 km+ 3.500 ft 300° 300° 6 kt METAR LSZR 130750Z AUTO 30006KT 270V330 9999 FEW014 BKN035 BKN044 16/14 Q1015
09:20
M
16 °C 10 km+ 2.400 ft 320° 320° 6 kt METAR LSZR 130720Z 32006KT 9999 FEW012 SCT014 BKN024 16/15 Q1015 RMK C
08:50
M
16 °C 10 km+ 2.400 ft 310° 310° 9 kt METAR LSZR 130650Z 31009KT 9999 VCSH FEW008 SCT016 BKN024 16/14 Q1015 RMK B
08:20
M
16 °C 10 km+ 2.400 ft 310° 310° 9 kt METAR LSZR 130620Z 31009KT 9999 VCSH FEW008 SCT016 BKN024 16/14 Q1015 RMK B
07:50
M
17 °C 10 km+ 2.300 ft 270° 270° 5 kt METAR LSZR 130550Z 27005KT 230V310 9999 VCSH FEW008 SCT020 BKN023 17/14 Q1015 RMK A
报告变更